ADDS METAR Data INFO
IDs: Format: Raw Decoded Include TAF

Data at: 0027 UTC 17 Dec 2017

KEBG 170015Z AUTO 33005KT 10SM -RA OVC004 10/09 A2999 RMK AO2 T00980086
KEBG 162355Z AUTO 32003KT 10SM -RA OVC006 10/09 A2999 RMK AO2 60006 T00990086 10113 20098
KEBG 162335Z AUTO 34006KT 10SM OVC006 10/09 A2999 RMK AO2 T01000086
KEBG 162315Z AUTO 29004KT 5SM BR OVC006 10/09 A2999 RMK AO2 T01000086
KEBG 162255Z AUTO 31006KT 5SM BR OVC006 10/09 A2999 RMK AO2 T00990085
KEBG 162235Z AUTO 31009KT 7SM OVC006 10/09 A2999 RMK AO2 T01000086
KEBG 162215Z AUTO 30007KT 10SM OVC006 10/09 A3000 RMK AO2 T01020090
KEBG 162155Z AUTO 33006KT 7SM OVC006 10/09 A3000 RMK AO2 T01010088
KEBG 162135Z AUTO 31008KT 7SM OVC006 10/09 A3001 RMK AO2 T01020090
KEBG 162115Z AUTO 31008KT 5SM BR OVC006 10/09 A3002 RMK AO2 T01020090
KEBG 162055Z AUTO 30007KT 5SM BR OVC006 10/09 A3002 RMK AO2 60006 T01010088
KEBG 162035Z AUTO 31006KT 7SM OVC006 10/09 A3001 RMK AO2 T01010088
KEBG 162015Z AUTO 30007KT 7SM OVC006 10/09 A3002 RMK AO2 T01000086
KEBG 161955Z AUTO 31006KT 5SM BR OVC006 10/09 A3003 RMK AO2 P0004 T01010087
KEBG 161935Z AUTO 32010KT 4SM BR BKN006 BKN010 OVC017 10/09 A3003 RMK AO2 P0004 T01020090
KEBG 161915Z AUTO 28009KT 2SM +DZ OVC008 10/09 A3007 RMK AO2 P0003 T01020086
KEBG 161855Z AUTO 30008KT 4SM RA OVC014 11/08 A3007 RMK AO2 P0002 T01050083
KEBG 161835Z AUTO 29011KT 10SM OVC014 11/08 A3010 RMK AO2 P0001 T01100082
KEBG 161815Z AUTO 32009KT 7SM -DZ OVC014 11/08 A3010 RMK AO2 P0001 T01100083
KEBG 161755Z AUTO 31007KT 5SM DZ OVC014 11/08 A3011 RMK AO2 T01110081 10116 20100
KEBG 161735Z AUTO 29007KT 7SM -DZ OVC014 11/08 A3013 RMK AO2 T01110080
KEBG 161715Z AUTO 29006KT 7SM -DZ OVC014 11/08 A3014 RMK AO2 T01100079
KEBG 161655Z AUTO 29007KT 10SM OVC014 12/07 A3014 RMK AO2 T01160071
KEBG 161640Z AUTO 32007KT 10SM OVC014 12/07 A3013 RMK AO2 T01150070
KEBG 161615Z AUTO 32006KT 10SM OVC016 11/07 A3013 RMK AO2 T01130069
KEBG 161555Z AUTO 33007KT 10SM OVC018 11/07 A3013 RMK AO2 T01110071
KEBG 161535Z AUTO 33007KT 10SM OVC020 11/07 A3013 RMK AO2 T01100071
KEBG 161515Z AUTO 32007KT 10SM OVC020 11/07 A3015 RMK AO2 T01080072
KEBG 161455Z AUTO 33007KT 10SM OVC022 11/07 A3015 RMK AO2 T01070072
KEBG 161435Z AUTO 32008KT 10SM OVC022 11/07 A3015 RMK AO2 T01060071
KEBG 161415Z AUTO 33007KT 10SM OVC022 11/07 A3015 RMK AO2 T01050072
KEBG 161355Z AUTO 33006KT 10SM OVC022 10/07 A3015 RMK AO2 T01030072
KEBG 161335Z AUTO 34004KT 10SM OVC022 10/07 A3016 RMK AO2 T01020071
KEBG 161315Z AUTO 34005KT 10SM OVC024 10/07 A3016 RMK AO2 T01020074
KEBG 161255Z AUTO 33005KT 10SM OVC024 10/08 A3017 RMK AO2 T01020075
KEBG 161235Z AUTO 32006KT 10SM OVC024 10/08 A3017 RMK AO2 T01010075
KEBG 161215Z AUTO 30006KT 10SM OVC026 10/08 A3018 RMK AO2 T01010077
KEBG 161155Z AUTO 32005KT 10SM OVC026 10/08 A3016 RMK AO2 70005 T01000080 10101 20098
KEBG 161135Z AUTO 32004KT 10SM OVC026 10/08 A3016 RMK AO2 T01000079
KEBG 161115Z AUTO 32003KT 10SM OVC026 10/08 A3017 RMK AO2 T01000080
KEBG 161055Z AUTO 32004KT 10SM OVC026 10/08 A3017 RMK AO2 T01000078
KEBG 161035Z AUTO 33005KT 10SM OVC026 10/08 A3018 RMK AO2 T01000078
KEBG 161015Z AUTO 31005KT 10SM OVC026 10/08 A3020 RMK AO2 T01000078
KEBG 160955Z AUTO 32004KT 10SM OVC026 10/08 A3020 RMK AO2 T01000080
KEBG 160935Z AUTO 31004KT 10SM OVC026 10/08 A3021 RMK AO2 T01000081
KEBG 160915Z AUTO 30004KT 10SM OVC028 10/08 A3021 RMK AO2 T01000081
KEBG 160855Z AUTO 30006KT 10SM OVC028 10/08 A3022 RMK AO2 T01000082
KEBG 160835Z AUTO 31005KT 10SM OVC028 10/08 A3022 RMK AO2 T00990082
KEBG 160815Z AUTO 31004KT 10SM OVC028 10/08 A3023 RMK AO2 T00990081
KEBG 160755Z AUTO 31005KT 10SM OVC026 10/08 A3023 RMK AO2 T00980081
KEBG 160735Z AUTO 31006KT 10SM OVC026 10/08 A3025 RMK AO2 T01000082
KEBG 160715Z AUTO 30004KT 10SM OVC026 10/08 A3025 RMK AO2 T01000084
KEBG 160655Z AUTO 30005KT 10SM OVC026 10/08 A3025 RMK AO2 T01000084
KEBG 160635Z AUTO 33004KT 10SM OVC028 10/09 A3025 RMK AO2 T01000085
KEBG 160615Z AUTO 32004KT 10SM OVC028 10/09 A3025 RMK AO2 T01000085
KEBG 160555Z AUTO 31004KT 10SM OVC032 10/09 A3027 RMK AO2 60001 T01000085 10101 20092 401580092
KEBG 160535Z AUTO 31003KT 10SM OVC032 10/09 A3028 RMK AO2 T01010086
KEBG 160515Z AUTO 31003KT 10SM OVC036 10/08 A3028 RMK AO2 T01000083
KEBG 160455Z AUTO 31003KT 10SM OVC036 10/08 A3029 RMK AO2 T01000083
KEBG 160435Z AUTO 31003KT 10SM OVC036 10/08 A3030 RMK AO2 T00980082
KEBG 160415Z AUTO 31004KT 10SM OVC038 10/08 A3031 RMK AO2 T00980082
KEBG 160355Z AUTO 30005KT 10SM OVC040 10/08 A3031 RMK AO2 T00970082
KEBG 160335Z AUTO 30004KT 10SM SCT042 OVC085 10/08 A3031 RMK AO2 T00960080
KEBG 160315Z AUTO 31004KT 10SM OVC085 10/08 A3031 RMK AO2 T00950080
KEBG 160255Z AUTO 31004KT 10SM SCT060 SCT070 OVC085 10/08 A3031 RMK AO2 60001 T00950078
KEBG 160235Z AUTO 31005KT 10SM -DZ BKN060 BKN070 OVC085 10/08 A3032 RMK AO2 T00950078
KEBG 160215Z AUTO 31006KT 10SM -RA BKN060 OVC090 10/08 A3033 RMK AO2 T00950077
KEBG 160155Z AUTO 30006KT 10SM -RA SCT060 OVC090 10/08 A3033 RMK AO2 T00950076
KEBG 160135Z AUTO 31005KT 10SM DZ BKN060 BKN075 OVC090 10/08 A3033 RMK AO2 T00950076
KEBG 160115Z AUTO 31006KT 10SM DZ BKN070 BKN075 OVC090 10/08 A3032 RMK AO2 T00950076
KEBG 160055Z AUTO 31006KT 10SM -RA SCT095 OVC110 09/08 A3031 RMK AO2 P0001 T00930075
KEBG 160035Z AUTO 31005KT 10SM RA SCT090 OVC110 09/08 A3031 RMK AO2 P0001 T00930075
KEBG 160015Z AUTO 31005KT 10SM DZ BKN090 OVC110 09/08 A3031 RMK AO2 T00930075
KEBG 152355Z AUTO 31006KT 10SM DZ BKN090 OVC110 09/08 A3030 RMK AO2 60004 T00940075 10101 20094
KEBG 152335Z AUTO 32006KT 10SM OVC090 10/08 A3030 RMK AO2 T00950077
KEBG 152315Z AUTO 32006KT 10SM -DZ OVC090 10/08 A3029 RMK AO2 T00950077
KEBG 152255Z AUTO 32005KT 10SM -DZ OVC090 10/08 A3029 RMK AO2 P0002 T00960079
KEBG 152235Z AUTO 31005KT 10SM DZ OVC090 10/08 A3030 RMK AO2 P0002 T00960078
KEBG 152215Z AUTO 32004KT 10SM -RA OVC090 10/08 A3030 RMK AO2 P0001 T00960076
KEBG 152155Z AUTO 31006KT 10SM -RA OVC090 10/08 A3029 RMK AO2 P0002 T00970076
KEBG 152135Z AUTO 32005KT 10SM -RA OVC090 10/07 A3028 RMK AO2 P0001 T00960074
KEBG 152115Z AUTO 32006KT 10SM -RA OVC090 10/07 A3029 RMK AO2 P0001 T00960073
KEBG 152055Z AUTO 32006KT 10SM RA OVC080 10/07 A3029 RMK AO2 T00950070
KEBG 152035Z AUTO 34007KT 10SM DZ OVC080 10/07 A3029 RMK AO2 T00950066
KEBG 152015Z AUTO 33008KT 10SM -DZ OVC080 10/06 A3029 RMK AO2 T00960064
KEBG 151955Z AUTO 33006G10KT 10SM -RA SCT048 SCT060 OVC080 10/06 A3030 RMK AO2 T00960063
KEBG 151935Z AUTO 34009KT 10SM -RA SCT048 SCT060 OVC070 10/06 A3031 RMK AO2 T00960057
KEBG 151915Z AUTO 34013KT 10SM -DZ BKN048 OVC070 10/06 A3031 RMK AO2 T00960055
KEBG 151855Z AUTO 33011KT 10SM -RA OVC046 10/06 A3032 RMK AO2 T00960058
KEBG 151835Z AUTO 32011KT 10SM BKN046 OVC055 10/05 A3034 RMK AO2 T00970052
KEBG 151815Z AUTO 33014KT 10SM SCT017 BKN050 OVC065 10/06 A3035 RMK AO2 T01000059
KEBG 151755Z AUTO 33011KT 10SM SCT017 BKN050 OVC065 10/06 A3036 RMK AO2 T01000061 10106 20100
KEBG 151735Z AUTO 33013G17KT 10SM SCT015 BKN050 OVC065 10/07 A3035 RMK AO2 T01020067
KEBG 151715Z AUTO 31011G14KT 10SM BKN055 OVC065 10/07 A3037 RMK AO2 T01030070
KEBG 151655Z AUTO 31010G15KT 10SM OVC055 11/07 A3037 RMK AO2 T01050073
KEBG 151635Z AUTO 32011G16KT 10SM OVC055 10/07 A3037 RMK AO2 T01020068
KEBG 151615Z AUTO 32011KT 10SM OVC055 10/07 A3035 RMK AO2 T01000066
KEBG 151555Z AUTO 32010KT 10SM OVC055 10/07 A3034 RMK AO2 T01000065
KEBG 151535Z AUTO 32007KT 10SM OVC055 10/07 A3033 RMK AO2 T01020067
KEBG 151515Z AUTO 33009KT 10SM OVC055 10/07 A3031 RMK AO2 T01010070
KEBG 151455Z AUTO 33010G14KT 10SM OVC055 10/07 A3031 RMK AO2 T01010070
KEBG 151435Z AUTO 33008G16KT 7SM OVC055 10/07 A3029 RMK AO2 T01010072
KEBG 151415Z AUTO 34008KT 10SM BKN060 OVC065 10/07 A3029 RMK AO2 T01010072
KEBG 151355Z AUTO 35008KT 10SM -RA BKN060 OVC110 10/07 A3026 RMK AO2 T01000072
KEBG 151335Z AUTO 35011KT 10SM -DZ SCT060 BKN110 10/08 A3024 RMK AO2 T01000075
KEBG 151315Z AUTO 35011KT 10SM -RA OVC110 10/08 A3024 RMK AO2 T01010075
KEBG 151255Z AUTO 34009KT 10SM -DZ OVC110 10/08 A3023 RMK AO2 T01010075
KEBG 151235Z AUTO 34011KT 10SM -RA BKN120 10/08 A3021 RMK AO2 T01010075